sensor_id;sensor_type;location;lat;lon;timestamp;temperature;humidity
34989;DHT22;21192;40.182;44.516;2022-07-29T00:01:52;26.30;62.20
34989;DHT22;21192;40.182;44.516;2022-07-29T00:04:18;26.30;62.20
34989;DHT22;21192;40.182;44.516;2022-07-29T00:06:45;26.30;62.00
34989;DHT22;21192;40.182;44.516;2022-07-29T00:09:11;26.30;62.20
34989;DHT22;21192;40.182;44.516;2022-07-29T00:11:37;26.30;62.50
34989;DHT22;21192;40.182;44.516;2022-07-29T00:14:03;26.30;62.60
34989;DHT22;21192;40.182;44.516;2022-07-29T00:16:29;26.20;62.80
34989;DHT22;21192;40.182;44.516;2022-07-29T00:18:55;26.20;63.50
34989;DHT22;21192;40.182;44.516;2022-07-29T00:21:21;26.20;63.70
34989;DHT22;21192;40.182;44.516;2022-07-29T00:23:47;26.10;64.10
34989;DHT22;21192;40.182;44.516;2022-07-29T00:26:13;26.10;64.10
34989;DHT22;21192;40.182;44.516;2022-07-29T00:28:39;26.10;64.50
34989;DHT22;21192;40.182;44.516;2022-07-29T00:31:05;26.10;65.00
34989;DHT22;21192;40.182;44.516;2022-07-29T00:33:31;26.00;65.30
34989;DHT22;21192;40.182;44.516;2022-07-29T00:35:57;26.00;64.70
34989;DHT22;21192;40.182;44.516;2022-07-29T00:38:23;26.00;63.60
34989;DHT22;21192;40.182;44.516;2022-07-29T00:40:48;25.90;63.60
34989;DHT22;21192;40.182;44.516;2022-07-29T00:43:15;25.90;64.20
34989;DHT22;21192;40.182;44.516;2022-07-29T00:45:42;25.90;64.90
34989;DHT22;21192;40.182;44.516;2022-07-29T00:48:08;25.90;65.20
34989;DHT22;21192;40.182;44.516;2022-07-29T00:50:35;25.90;65.50
34989;DHT22;21192;40.182;44.516;2022-07-29T00:53:03;25.90;65.90
34989;DHT22;21192;40.182;44.516;2022-07-29T00:55:29;25.80;66.20
34989;DHT22;21192;40.182;44.516;2022-07-29T00:57:57;25.90;66.20
34989;DHT22;21192;40.182;44.516;2022-07-29T01:00:25;25.80;65.70
34989;DHT22;21192;40.182;44.516;2022-07-29T01:02:52;25.80;65.70
34989;DHT22;21192;40.182;44.516;2022-07-29T01:05:20;25.80;65.00
34989;DHT22;21192;40.182;44.516;2022-07-29T01:07:48;25.80;64.80
34989;DHT22;21192;40.182;44.516;2022-07-29T01:10:15;25.90;65.00
34989;DHT22;21192;40.182;44.516;2022-07-29T01:12:43;25.90;64.10
34989;DHT22;21192;40.182;44.516;2022-07-29T01:15:11;25.80;64.60
34989;DHT22;21192;40.182;44.516;2022-07-29T01:18:04;25.80;65.00
34989;DHT22;21192;40.182;44.516;2022-07-29T01:26:14;25.70;66.70
34989;DHT22;21192;40.182;44.516;2022-07-29T01:31:40;25.70;67.80
34989;DHT22;21192;40.182;44.516;2022-07-29T01:34:08;25.70;68.00
34989;DHT22;21192;40.182;44.516;2022-07-29T01:36:43;25.70;68.40
34989;DHT22;21192;40.182;44.516;2022-07-29T01:39:36;25.60;68.50
34989;DHT22;21192;40.182;44.516;2022-07-29T01:45:10;25.70;67.30
34989;DHT22;21192;40.182;44.516;2022-07-29T01:51:10;25.80;66.10
34989;DHT22;21192;40.182;44.516;2022-07-29T01:53:38;25.70;65.80
34989;DHT22;21192;40.182;44.516;2022-07-29T01:56:09;25.70;65.70
34989;DHT22;21192;40.182;44.516;2022-07-29T01:58:37;25.80;65.50
34989;DHT22;21192;40.182;44.516;2022-07-29T02:01:05;25.80;65.30
34989;DHT22;21192;40.182;44.516;2022-07-29T02:03:32;25.70;64.60
34989;DHT22;21192;40.182;44.516;2022-07-29T02:06:02;25.70;64.10
34989;DHT22;21192;40.182;44.516;2022-07-29T02:08:30;25.70;63.20
34989;DHT22;21192;40.182;44.516;2022-07-29T02:10:57;25.70;62.90
34989;DHT22;21192;40.182;44.516;2022-07-29T02:13:26;25.70;62.10
34989;DHT22;21192;40.182;44.516;2022-07-29T02:15:53;25.90;60.80
34989;DHT22;21192;40.182;44.516;2022-07-29T02:18:23;25.90;60.50
34989;DHT22;21192;40.182;44.516;2022-07-29T02:20:53;26.00;59.80
34989;DHT22;21192;40.182;44.516;2022-07-29T02:23:23;26.10;59.20
34989;DHT22;21192;40.182;44.516;2022-07-29T02:25:53;26.10;58.20
34989;DHT22;21192;40.182;44.516;2022-07-29T02:28:23;26.10;57.80
34989;DHT22;21192;40.182;44.516;2022-07-29T02:30:52;26.20;57.20
34989;DHT22;21192;40.182;44.516;2022-07-29T02:33:20;26.20;57.10
34989;DHT22;21192;40.182;44.516;2022-07-29T02:35:47;26.20;57.10
34989;DHT22;21192;40.182;44.516;2022-07-29T02:38:17;26.30;57.00
34989;DHT22;21192;40.182;44.516;2022-07-29T02:41:13;26.40;56.80
34989;DHT22;21192;40.182;44.516;2022-07-29T02:43:41;26.60;56.40
34989;DHT22;21192;40.182;44.516;2022-07-29T02:46:13;26.80;55.90
34989;DHT22;21192;40.182;44.516;2022-07-29T02:49:04;27.10;55.50
34989;DHT22;21192;40.182;44.516;2022-07-29T02:51:41;27.30;54.50
34989;DHT22;21192;40.182;44.516;2022-07-29T02:54:11;27.50;54.20
34989;DHT22;21192;40.182;44.516;2022-07-29T02:56:40;27.80;54.10
34989;DHT22;21192;40.182;44.516;2022-07-29T02:59:11;28.10;53.50
34989;DHT22;21192;40.182;44.516;2022-07-29T03:01:41;28.40;53.20
34989;DHT22;21192;40.182;44.516;2022-07-29T03:04:09;28.90;52.70
34989;DHT22;21192;40.182;44.516;2022-07-29T03:06:37;29.20;52.00
34989;DHT22;21192;40.182;44.516;2022-07-29T03:09:06;29.60;51.30
34989;DHT22;21192;40.182;44.516;2022-07-29T03:11:33;29.90;50.80
34989;DHT22;21192;40.182;44.516;2022-07-29T03:14:01;30.20;50.40
34989;DHT22;21192;40.182;44.516;2022-07-29T03:16:27;30.50;50.10
34989;DHT22;21192;40.182;44.516;2022-07-29T03:18:54;30.90;49.80
34989;DHT22;21192;40.182;44.516;2022-07-29T03:21:20;31.20;49.40
34989;DHT22;21192;40.182;44.516;2022-07-29T03:23:46;31.70;48.70
34989;DHT22;21192;40.182;44.516;2022-07-29T03:26:13;32.10;48.10
34989;DHT22;21192;40.182;44.516;2022-07-29T03:28:39;32.60;47.50
34989;DHT22;21192;40.182;44.516;2022-07-29T03:31:05;32.90;46.60
34989;DHT22;21192;40.182;44.516;2022-07-29T03:33:31;33.40;46.20
34989;DHT22;21192;40.182;44.516;2022-07-29T03:35:57;33.70;45.50
34989;DHT22;21192;40.182;44.516;2022-07-29T03:38:25;34.00;44.90
34989;DHT22;21192;40.182;44.516;2022-07-29T03:41:00;34.10;44.40
34989;DHT22;21192;40.182;44.516;2022-07-29T03:43:30;34.20;44.20
34989;DHT22;21192;40.182;44.516;2022-07-29T03:46:00;34.00;44.20
34989;DHT22;21192;40.182;44.516;2022-07-29T03:48:28;33.80;44.20
34989;DHT22;21192;40.182;44.516;2022-07-29T03:50:56;33.40;44.70
34989;DHT22;21192;40.182;44.516;2022-07-29T03:53:22;33.20;44.70
34989;DHT22;21192;40.182;44.516;2022-07-29T03:55:54;33.20;45.00
34989;DHT22;21192;40.182;44.516;2022-07-29T03:58:23;33.90;44.80
34989;DHT22;21192;40.182;44.516;2022-07-29T04:00:52;34.70;44.20
34989;DHT22;21192;40.182;44.516;2022-07-29T04:03:18;35.40;43.50
34989;DHT22;21192;40.182;44.516;2022-07-29T04:05:44;36.20;42.60
34989;DHT22;21192;40.182;44.516;2022-07-29T04:08:10;36.70;41.50
34989;DHT22;21192;40.182;44.516;2022-07-29T04:10:37;36.80;41.00
34989;DHT22;21192;40.182;44.516;2022-07-29T04:13:03;37.00;40.50
34989;DHT22;21192;40.182;44.516;2022-07-29T04:15:29;37.30;40.20
34989;DHT22;21192;40.182;44.516;2022-07-29T04:17:55;36.80;40.20
34989;DHT22;21192;40.182;44.516;2022-07-29T04:20:21;36.70;40.60
34989;DHT22;21192;40.182;44.516;2022-07-29T04:22:47;36.80;40.80
34989;DHT22;21192;40.182;44.516;2022-07-29T04:25:13;37.70;40.60
34989;DHT22;21192;40.182;44.516;2022-07-29T04:27:39;38.50;39.90
34989;DHT22;21192;40.182;44.516;2022-07-29T04:30:25;39.10;38.50
34989;DHT22;21192;40.182;44.516;2022-07-29T04:32:51;39.50;37.60
34989;DHT22;21192;40.182;44.516;2022-07-29T04:35:18;39.80;36.90
34989;DHT22;21192;40.182;44.516;2022-07-29T04:37:44;40.10;36.60
34989;DHT22;21192;40.182;44.516;2022-07-29T04:40:10;40.50;36.00
34989;DHT22;21192;40.182;44.516;2022-07-29T04:42:37;40.60;35.60
34989;DHT22;21192;40.182;44.516;2022-07-29T04:45:04;40.80;35.30
34989;DHT22;21192;40.182;44.516;2022-07-29T04:47:30;41.20;35.30
34989;DHT22;21192;40.182;44.516;2022-07-29T04:49:56;41.60;34.90
34989;DHT22;21192;40.182;44.516;2022-07-29T04:52:22;42.10;34.80
34989;DHT22;21192;40.182;44.516;2022-07-29T04:54:48;42.70;34.60
34989;DHT22;21192;40.182;44.516;2022-07-29T04:57:14;43.20;34.10
34989;DHT22;21192;40.182;44.516;2022-07-29T04:59:40;42.80;34.00
34989;DHT22;21192;40.182;44.516;2022-07-29T05:02:06;43.20;34.50
34989;DHT22;21192;40.182;44.516;2022-07-29T05:04:32;43.60;33.60
34989;DHT22;21192;40.182;44.516;2022-07-29T05:06:58;43.80;33.30
34989;DHT22;21192;40.182;44.516;2022-07-29T05:09:24;43.90;33.30
34989;DHT22;21192;40.182;44.516;2022-07-29T05:11:50;43.70;33.30
34989;DHT22;21192;40.182;44.516;2022-07-29T05:14:16;43.30;33.60
34989;DHT22;21192;40.182;44.516;2022-07-29T05:16:42;42.40;33.90
34989;DHT22;21192;40.182;44.516;2022-07-29T05:19:09;41.50;35.10
34989;DHT22;21192;40.182;44.516;2022-07-29T05:21:35;40.90;35.90
34989;DHT22;21192;40.182;44.516;2022-07-29T05:24:01;40.20;36.50
34989;DHT22;21192;40.182;44.516;2022-07-29T05:26:27;39.60;37.20
34989;DHT22;21192;40.182;44.516;2022-07-29T05:28:53;38.90;38.20
34989;DHT22;21192;40.182;44.516;2022-07-29T05:31:20;38.30;39.00
34989;DHT22;21192;40.182;44.516;2022-07-29T05:33:46;37.70;40.10
34989;DHT22;21192;40.182;44.516;2022-07-29T05:36:12;37.10;40.70
34989;DHT22;21192;40.182;44.516;2022-07-29T05:38:38;36.40;41.50
34989;DHT22;21192;40.182;44.516;2022-07-29T05:41:04;36.30;41.70
34989;DHT22;21192;40.182;44.516;2022-07-29T05:43:31;36.10;41.80
34989;DHT22;21192;40.182;44.516;2022-07-29T05:45:57;35.80;42.40
34989;DHT22;21192;40.182;44.516;2022-07-29T05:48:23;35.50;42.70
34989;DHT22;21192;40.182;44.516;2022-07-29T05:50:49;35.60;42.90
34989;DHT22;21192;40.182;44.516;2022-07-29T05:53:15;35.50;43.20
34989;DHT22;21192;40.182;44.516;2022-07-29T05:55:42;35.30;43.30
34989;DHT22;21192;40.182;44.516;2022-07-29T05:58:08;35.20;43.60
34989;DHT22;21192;40.182;44.516;2022-07-29T06:00:34;35.00;43.80
34989;DHT22;21192;40.182;44.516;2022-07-29T06:03:00;34.30;45.10
34989;DHT22;21192;40.182;44.516;2022-07-29T06:05:26;34.10;45.70
34989;DHT22;21192;40.182;44.516;2022-07-29T06:07:52;34.20;45.30
34989;DHT22;21192;40.182;44.516;2022-07-29T06:10:18;34.10;45.30
34989;DHT22;21192;40.182;44.516;2022-07-29T06:12:44;34.30;44.90
34989;DHT22;21192;40.182;44.516;2022-07-29T06:15:10;34.20;45.00
34989;DHT22;21192;40.182;44.516;2022-07-29T06:17:36;33.90;45.40
34989;DHT22;21192;40.182;44.516;2022-07-29T06:20:03;33.90;45.60
34989;DHT22;21192;40.182;44.516;2022-07-29T06:22:29;34.00;45.50
34989;DHT22;21192;40.182;44.516;2022-07-29T06:24:55;33.80;45.60
34989;DHT22;21192;40.182;44.516;2022-07-29T06:27:21;33.80;45.30
34989;DHT22;21192;40.182;44.516;2022-07-29T06:29:47;33.80;45.20
34989;DHT22;21192;40.182;44.516;2022-07-29T06:32:13;33.90;44.90
34989;DHT22;21192;40.182;44.516;2022-07-29T06:34:39;33.80;45.20
34989;DHT22;21192;40.182;44.516;2022-07-29T06:37:06;33.60;45.20
34989;DHT22;21192;40.182;44.516;2022-07-29T06:39:35;33.70;45.20
34989;DHT22;21192;40.182;44.516;2022-07-29T06:42:03;33.70;45.30
34989;DHT22;21192;40.182;44.516;2022-07-29T06:44:29;33.80;45.30
34989;DHT22;21192;40.182;44.516;2022-07-29T06:46:55;33.70;45.20
34989;DHT22;21192;40.182;44.516;2022-07-29T06:49:21;33.80;44.90
34989;DHT22;21192;40.182;44.516;2022-07-29T06:51:48;33.90;44.80
34989;DHT22;21192;40.182;44.516;2022-07-29T06:54:14;33.90;45.30
34989;DHT22;21192;40.182;44.516;2022-07-29T06:56:40;33.80;45.50
34989;DHT22;21192;40.182;44.516;2022-07-29T06:59:09;33.70;46.50
34989;DHT22;21192;40.182;44.516;2022-07-29T07:01:36;33.50;46.40
34989;DHT22;21192;40.182;44.516;2022-07-29T07:04:02;33.50;46.30
34989;DHT22;21192;40.182;44.516;2022-07-29T07:06:28;33.50;46.10
34989;DHT22;21192;40.182;44.516;2022-07-29T07:08:54;33.60;45.80
34989;DHT22;21192;40.182;44.516;2022-07-29T07:11:20;33.70;46.00
34989;DHT22;21192;40.182;44.516;2022-07-29T07:13:46;33.60;46.20
34989;DHT22;21192;40.182;44.516;2022-07-29T07:16:12;33.50;46.30
34989;DHT22;21192;40.182;44.516;2022-07-29T07:18:38;33.50;46.30
34989;DHT22;21192;40.182;44.516;2022-07-29T07:21:04;33.40;46.70
34989;DHT22;21192;40.182;44.516;2022-07-29T07:23:31;33.30;46.80
34989;DHT22;21192;40.182;44.516;2022-07-29T07:25:57;33.30;46.80
34989;DHT22;21192;40.182;44.516;2022-07-29T07:28:23;33.30;46.70
34989;DHT22;21192;40.182;44.516;2022-07-29T07:30:49;33.40;46.90
34989;DHT22;21192;40.182;44.516;2022-07-29T07:33:14;33.40;47.10
34989;DHT22;21192;40.182;44.516;2022-07-29T07:35:41;33.50;47.10
34989;DHT22;21192;40.182;44.516;2022-07-29T07:38:09;33.50;47.10
34989;DHT22;21192;40.182;44.516;2022-07-29T07:40:35;33.50;46.90
34989;DHT22;21192;40.182;44.516;2022-07-29T07:43:01;33.50;47.00
34989;DHT22;21192;40.182;44.516;2022-07-29T07:45:27;33.50;47.00
34989;DHT22;21192;40.182;44.516;2022-07-29T07:47:53;33.40;46.90
34989;DHT22;21192;40.182;44.516;2022-07-29T07:50:20;33.30;47.00
34989;DHT22;21192;40.182;44.516;2022-07-29T07:52:55;33.10;47.30
34989;DHT22;21192;40.182;44.516;2022-07-29T07:55:25;33.20;47.20
34989;DHT22;21192;40.182;44.516;2022-07-29T07:57:52;33.20;47.20
34989;DHT22;21192;40.182;44.516;2022-07-29T08:00:18;33.20;47.10
34989;DHT22;21192;40.182;44.516;2022-07-29T08:02:44;33.10;47.10
34989;DHT22;21192;40.182;44.516;2022-07-29T08:05:11;33.10;47.20
34989;DHT22;21192;40.182;44.516;2022-07-29T08:07:41;33.10;47.60
34989;DHT22;21192;40.182;44.516;2022-07-29T08:10:07;33.00;47.80
34989;DHT22;21192;40.182;44.516;2022-07-29T08:12:33;33.00;47.70
34989;DHT22;21192;40.182;44.516;2022-07-29T08:14:59;33.00;47.70
34989;DHT22;21192;40.182;44.516;2022-07-29T08:17:25;33.00;47.80
34989;DHT22;21192;40.182;44.516;2022-07-29T08:19:52;33.00;47.70
34989;DHT22;21192;40.182;44.516;2022-07-29T08:22:18;33.00;47.30
34989;DHT22;21192;40.182;44.516;2022-07-29T08:24:44;33.10;47.20
34989;DHT22;21192;40.182;44.516;2022-07-29T08:27:13;33.10;47.40
34989;DHT22;21192;40.182;44.516;2022-07-29T08:29:40;33.00;47.70
34989;DHT22;21192;40.182;44.516;2022-07-29T08:32:06;33.00;47.70
34989;DHT22;21192;40.182;44.516;2022-07-29T08:34:32;32.80;47.90
34989;DHT22;21192;40.182;44.516;2022-07-29T08:36:58;32.70;48.30
34989;DHT22;21192;40.182;44.516;2022-07-29T08:39:24;32.70;48.20
34989;DHT22;21192;40.182;44.516;2022-07-29T08:41:51;32.80;48.10
34989;DHT22;21192;40.182;44.516;2022-07-29T08:44:20;32.90;48.20
34989;DHT22;21192;40.182;44.516;2022-07-29T08:46:48;33.00;47.80
34989;DHT22;21192;40.182;44.516;2022-07-29T08:49:15;33.00;47.50
34989;DHT22;21192;40.182;44.516;2022-07-29T08:51:41;32.90;47.60
34989;DHT22;21192;40.182;44.516;2022-07-29T08:54:08;32.90;47.90
34989;DHT22;21192;40.182;44.516;2022-07-29T08:56:34;33.00;47.90
34989;DHT22;21192;40.182;44.516;2022-07-29T08:59:03;33.10;47.70
34989;DHT22;21192;40.182;44.516;2022-07-29T09:01:32;33.00;47.50
34989;DHT22;21192;40.182;44.516;2022-07-29T09:03:59;33.10;47.30
34989;DHT22;21192;40.182;44.516;2022-07-29T09:06:31;33.10;47.30
34989;DHT22;21192;40.182;44.516;2022-07-29T09:08:59;33.20;47.40
34989;DHT22;21192;40.182;44.516;2022-07-29T09:11:26;33.10;47.10
34989;DHT22;21192;40.182;44.516;2022-07-29T09:13:52;33.10;47.20
34989;DHT22;21192;40.182;44.516;2022-07-29T09:16:18;33.10;47.30
34989;DHT22;21192;40.182;44.516;2022-07-29T09:18:45;33.10;47.70
34989;DHT22;21192;40.182;44.516;2022-07-29T09:21:14;33.10;47.70
34989;DHT22;21192;40.182;44.516;2022-07-29T09:26:31;33.10;47.80
34989;DHT22;21192;40.182;44.516;2022-07-29T09:28:58;33.10;47.80
34989;DHT22;21192;40.182;44.516;2022-07-29T09:31:36;33.10;47.50
34989;DHT22;21192;40.182;44.516;2022-07-29T09:34:02;33.10;47.50
34989;DHT22;21192;40.182;44.516;2022-07-29T09:36:28;33.10;47.60
34989;DHT22;21192;40.182;44.516;2022-07-29T09:39:01;33.10;47.90
34989;DHT22;21192;40.182;44.516;2022-07-29T09:41:29;33.10;47.70
34989;DHT22;21192;40.182;44.516;2022-07-29T09:43:56;33.10;47.30
34989;DHT22;21192;40.182;44.516;2022-07-29T09:46:23;33.20;47.50
34989;DHT22;21192;40.182;44.516;2022-07-29T09:49:10;33.00;47.30
34989;DHT22;21192;40.182;44.516;2022-07-29T09:51:36;33.00;48.10
34989;DHT22;21192;40.182;44.516;2022-07-29T09:54:21;33.00;47.60
34989;DHT22;21192;40.182;44.516;2022-07-29T09:56:49;33.00;47.40
34989;DHT22;21192;40.182;44.516;2022-07-29T09:59:16;33.10;47.70
34989;DHT22;21192;40.182;44.516;2022-07-29T10:01:42;33.10;47.80
34989;DHT22;21192;40.182;44.516;2022-07-29T10:04:09;33.20;47.70
34989;DHT22;21192;40.182;44.516;2022-07-29T10:06:35;33.20;47.60
34989;DHT22;21192;40.182;44.516;2022-07-29T10:09:08;33.20;47.30
34989;DHT22;21192;40.182;44.516;2022-07-29T10:11:34;33.20;47.50
34989;DHT22;21192;40.182;44.516;2022-07-29T10:14:03;33.20;47.40
34989;DHT22;21192;40.182;44.516;2022-07-29T10:16:29;33.20;47.30
34989;DHT22;21192;40.182;44.516;2022-07-29T10:19:01;33.20;47.30
34989;DHT22;21192;40.182;44.516;2022-07-29T10:21:27;33.30;47.20
34989;DHT22;21192;40.182;44.516;2022-07-29T10:23:54;33.30;47.20
34989;DHT22;21192;40.182;44.516;2022-07-29T10:26:20;33.30;47.10
34989;DHT22;21192;40.182;44.516;2022-07-29T10:28:46;33.30;47.30
34989;DHT22;21192;40.182;44.516;2022-07-29T10:31:28;33.30;47.20
34989;DHT22;21192;40.182;44.516;2022-07-29T10:36:43;33.30;46.50
34989;DHT22;21192;40.182;44.516;2022-07-29T10:44:27;33.30;46.80
34989;DHT22;21192;40.182;44.516;2022-07-29T10:46:54;33.30;46.90
34989;DHT22;21192;40.182;44.516;2022-07-29T10:49:22;33.30;47.20
34989;DHT22;21192;40.182;44.516;2022-07-29T10:52:04;33.40;47.30
34989;DHT22;21192;40.182;44.516;2022-07-29T11:05:13;33.40;46.60
34989;DHT22;21192;40.182;44.516;2022-07-29T11:08:16;33.50;46.90
34989;DHT22;21192;40.182;44.516;2022-07-29T11:10:26;33.50;46.90
34989;DHT22;21192;40.182;44.516;2022-07-29T11:12:52;33.60;46.80
34989;DHT22;21192;40.182;44.516;2022-07-29T11:15:21;33.60;46.30
34989;DHT22;21192;40.182;44.516;2022-07-29T11:22:56;33.70;45.70
34989;DHT22;21192;40.182;44.516;2022-07-29T11:25:23;33.60;45.90
34989;DHT22;21192;40.182;44.516;2022-07-29T11:27:50;33.70;46.10
34989;DHT22;21192;40.182;44.516;2022-07-29T11:30:17;33.70;45.60
34989;DHT22;21192;40.182;44.516;2022-07-29T11:32:44;33.80;45.20
34989;DHT22;21192;40.182;44.516;2022-07-29T11:35:21;33.80;45.30
34989;DHT22;21192;40.182;44.516;2022-07-29T11:41:26;33.80;45.30
34989;DHT22;21192;40.182;44.516;2022-07-29T11:43:57;33.80;45.60
34989;DHT22;21192;40.182;44.516;2022-07-29T11:46:48;33.90;46.20
34989;DHT22;21192;40.182;44.516;2022-07-29T11:49:26;33.90;45.40
34989;DHT22;21192;40.182;44.516;2022-07-29T11:51:57;33.90;45.20
34989;DHT22;21192;40.182;44.516;2022-07-29T11:54:34;33.90;45.10
34989;DHT22;21192;40.182;44.516;2022-07-29T11:57:01;33.90;45.10
34989;DHT22;21192;40.182;44.516;2022-07-29T11:59:27;33.90;44.90
34989;DHT22;21192;40.182;44.516;2022-07-29T12:01:54;33.90;44.50
34989;DHT22;21192;40.182;44.516;2022-07-29T12:04:20;34.00;44.40
34989;DHT22;21192;40.182;44.516;2022-07-29T12:06:55;34.00;44.00
34989;DHT22;21192;40.182;44.516;2022-07-29T12:09:23;34.00;43.90
34989;DHT22;21192;40.182;44.516;2022-07-29T12:11:58;34.00;44.00
34989;DHT22;21192;40.182;44.516;2022-07-29T12:14:29;34.00;44.00
34989;DHT22;21192;40.182;44.516;2022-07-29T12:16:56;34.10;44.20
34989;DHT22;21192;40.182;44.516;2022-07-29T12:19:22;34.10;43.70
34989;DHT22;21192;40.182;44.516;2022-07-29T12:21:50;34.20;43.40
34989;DHT22;21192;40.182;44.516;2022-07-29T12:24:18;34.10;43.10
34989;DHT22;21192;40.182;44.516;2022-07-29T12:26:58;34.10;43.20
34989;DHT22;21192;40.182;44.516;2022-07-29T12:29:25;34.10;43.70
34989;DHT22;21192;40.182;44.516;2022-07-29T12:31:54;34.10;44.00
34989;DHT22;21192;40.182;44.516;2022-07-29T12:34:22;34.20;43.90
34989;DHT22;21192;40.182;44.516;2022-07-29T12:36:49;34.20;43.70
34989;DHT22;21192;40.182;44.516;2022-07-29T12:39:18;34.20;43.10
34989;DHT22;21192;40.182;44.516;2022-07-29T12:41:44;34.20;42.80
34989;DHT22;21192;40.182;44.516;2022-07-29T12:44:11;34.20;42.90
34989;DHT22;21192;40.182;44.516;2022-07-29T12:46:37;34.20;42.80
34989;DHT22;21192;40.182;44.516;2022-07-29T12:49:03;34.20;42.60
34989;DHT22;21192;40.182;44.516;2022-07-29T12:51:32;34.20;42.80
34989;DHT22;21192;40.182;44.516;2022-07-29T12:54:08;34.20;43.30
34989;DHT22;21192;40.182;44.516;2022-07-29T12:56:39;34.20;43.30
34989;DHT22;21192;40.182;44.516;2022-07-29T12:59:20;34.20;43.30
34989;DHT22;21192;40.182;44.516;2022-07-29T13:01:48;34.20;43.20
34989;DHT22;21192;40.182;44.516;2022-07-29T13:04:26;34.30;43.00
34989;DHT22;21192;40.182;44.516;2022-07-29T13:07:06;34.30;42.80
34989;DHT22;21192;40.182;44.516;2022-07-29T13:09:51;34.20;42.60
34989;DHT22;21192;40.182;44.516;2022-07-29T13:12:17;34.30;42.20
34989;DHT22;21192;40.182;44.516;2022-07-29T13:14:45;34.30;42.10
34989;DHT22;21192;40.182;44.516;2022-07-29T13:17:16;34.20;42.30
34989;DHT22;21192;40.182;44.516;2022-07-29T13:19:48;34.20;42.50
34989;DHT22;21192;40.182;44.516;2022-07-29T13:22:21;34.20;42.50
34989;DHT22;21192;40.182;44.516;2022-07-29T13:25:06;34.20;42.40
34989;DHT22;21192;40.182;44.516;2022-07-29T13:27:34;34.20;42.10
34989;DHT22;21192;40.182;44.516;2022-07-29T13:30:04;34.20;42.40
34989;DHT22;21192;40.182;44.516;2022-07-29T13:32:31;34.30;42.10
34989;DHT22;21192;40.182;44.516;2022-07-29T13:35:02;34.30;42.10
34989;DHT22;21192;40.182;44.516;2022-07-29T13:37:28;34.30;42.30
34989;DHT22;21192;40.182;44.516;2022-07-29T13:39:58;34.30;42.30
34989;DHT22;21192;40.182;44.516;2022-07-29T13:42:26;34.30;42.40
34989;DHT22;21192;40.182;44.516;2022-07-29T13:44:52;34.20;42.50
34989;DHT22;21192;40.182;44.516;2022-07-29T13:47:19;34.20;42.80
34989;DHT22;21192;40.182;44.516;2022-07-29T13:49:45;34.20;43.00
34989;DHT22;21192;40.182;44.516;2022-07-29T13:52:11;34.20;43.40
34989;DHT22;21192;40.182;44.516;2022-07-29T13:54:38;34.20;44.90
34989;DHT22;21192;40.182;44.516;2022-07-29T13:57:04;34.20;45.70
34989;DHT22;21192;40.182;44.516;2022-07-29T13:59:30;34.20;45.90
34989;DHT22;21192;40.182;44.516;2022-07-29T14:01:56;34.20;45.70
34989;DHT22;21192;40.182;44.516;2022-07-29T14:04:22;34.20;45.00
34989;DHT22;21192;40.182;44.516;2022-07-29T14:06:49;34.20;45.20
34989;DHT22;21192;40.182;44.516;2022-07-29T14:09:16;34.10;45.30
34989;DHT22;21192;40.182;44.516;2022-07-29T14:11:41;34.10;45.80
34989;DHT22;21192;40.182;44.516;2022-07-29T14:14:07;33.90;46.40
34989;DHT22;21192;40.182;44.516;2022-07-29T14:16:35;33.70;47.00
34989;DHT22;21192;40.182;44.516;2022-07-29T14:19:01;33.60;46.90
34989;DHT22;21192;40.182;44.516;2022-07-29T14:21:28;33.40;47.10
34989;DHT22;21192;40.182;44.516;2022-07-29T14:23:54;33.30;47.60
34989;DHT22;21192;40.182;44.516;2022-07-29T14:26:21;33.30;47.40
34989;DHT22;21192;40.182;44.516;2022-07-29T14:28:48;33.10;48.00
34989;DHT22;21192;40.182;44.516;2022-07-29T14:31:14;33.10;48.60
34989;DHT22;21192;40.182;44.516;2022-07-29T14:33:40;33.10;48.50
34989;DHT22;21192;40.182;44.516;2022-07-29T14:36:06;33.00;48.50
34989;DHT22;21192;40.182;44.516;2022-07-29T14:38:33;32.80;48.90
34989;DHT22;21192;40.182;44.516;2022-07-29T14:40:59;32.80;49.20
34989;DHT22;21192;40.182;44.516;2022-07-29T14:43:25;32.60;49.30
34989;DHT22;21192;40.182;44.516;2022-07-29T14:45:51;32.60;49.60
34989;DHT22;21192;40.182;44.516;2022-07-29T14:48:17;32.60;49.40
34989;DHT22;21192;40.182;44.516;2022-07-29T14:50:43;32.40;49.40
34989;DHT22;21192;40.182;44.516;2022-07-29T14:53:09;32.30;49.90
34989;DHT22;21192;40.182;44.516;2022-07-29T14:55:35;32.20;50.20
34989;DHT22;21192;40.182;44.516;2022-07-29T14:58:01;32.20;50.40
34989;DHT22;21192;40.182;44.516;2022-07-29T15:00:27;32.20;50.10
34989;DHT22;21192;40.182;44.516;2022-07-29T15:02:58;32.20;50.30
34989;DHT22;21192;40.182;44.516;2022-07-29T15:05:25;32.20;50.60
34989;DHT22;21192;40.182;44.516;2022-07-29T15:07:51;32.10;50.80
34989;DHT22;21192;40.182;44.516;2022-07-29T15:10:17;32.00;50.90
34989;DHT22;21192;40.182;44.516;2022-07-29T15:12:43;32.00;51.70
34989;DHT22;21192;40.182;44.516;2022-07-29T15:15:09;31.90;51.30
34989;DHT22;21192;40.182;44.516;2022-07-29T15:17:35;31.80;51.50
34989;DHT22;21192;40.182;44.516;2022-07-29T15:20:02;31.70;51.60
34989;DHT22;21192;40.182;44.516;2022-07-29T15:22:28;31.70;51.70
34989;DHT22;21192;40.182;44.516;2022-07-29T15:24:54;31.60;52.00
34989;DHT22;21192;40.182;44.516;2022-07-29T15:27:20;31.60;52.00
34989;DHT22;21192;40.182;44.516;2022-07-29T15:29:46;31.50;51.90
34989;DHT22;21192;40.182;44.516;2022-07-29T15:32:12;31.50;52.00
34989;DHT22;21192;40.182;44.516;2022-07-29T15:34:39;31.40;52.20
34989;DHT22;21192;40.182;44.516;2022-07-29T15:37:05;31.40;52.40
34989;DHT22;21192;40.182;44.516;2022-07-29T15:39:32;31.30;52.60
34989;DHT22;21192;40.182;44.516;2022-07-29T15:41:58;31.30;52.60
34989;DHT22;21192;40.182;44.516;2022-07-29T15:44:27;31.20;53.00
34989;DHT22;21192;40.182;44.516;2022-07-29T15:46:53;31.10;53.10
34989;DHT22;21192;40.182;44.516;2022-07-29T15:49:34;31.00;53.60
34989;DHT22;21192;40.182;44.516;2022-07-29T15:52:02;30.90;53.90
34989;DHT22;21192;40.182;44.516;2022-07-29T15:54:29;30.80;54.10
34989;DHT22;21192;40.182;44.516;2022-07-29T15:56:55;30.70;53.90
34989;DHT22;21192;40.182;44.516;2022-07-29T15:59:22;30.60;54.30
34989;DHT22;21192;40.182;44.516;2022-07-29T16:01:48;30.50;54.50
34989;DHT22;21192;40.182;44.516;2022-07-29T16:04:15;30.40;54.70
34989;DHT22;21192;40.182;44.516;2022-07-29T16:06:42;30.40;54.90